Terminal Aerodrome Forecast
Issued by NWS

Home | Current Version | Previous Version | Text Only | Print | Product List | Glossary On
Versions: 1 2 3 4 5 6 7 8 9 10 11 12
000
FTUS45 KRIW 251700
TAFCOD
TAF
KCOD 251721Z 2518/2618 26015G25KT P6SM SCT080 BKN200
     FM260000 25012G18KT P6SM SCT100
     FM260600 25011KT P6SM SKC
      AMD LTD TO CLD VIS AND WIND=

USA.gov is the U.S. government's official web portal to all federal, state and local government web resources and services.